createdAt,value
2018-04-26T00:02:47.611Z,9.30
2018-04-26T00:07:39.861Z,9.20
2018-04-26T00:12:32.151Z,9.20
2018-04-26T00:17:23.720Z,9.10
2018-04-26T00:22:15.269Z,9.10
2018-04-26T00:27:07.517Z,9.10
2018-04-26T00:31:59.787Z,9.20
2018-04-26T00:36:52.022Z,9.10
2018-04-26T00:41:44.266Z,9.10
2018-04-26T00:46:35.806Z,9.00
2018-04-26T00:51:46.429Z,9.00
2018-04-26T00:56:37.949Z,9.00
2018-04-26T01:01:29.465Z,9.10
2018-04-26T01:06:21.725Z,9.20
2018-04-26T01:11:13.258Z,9.10
2018-04-26T01:16:04.759Z,9.20
2018-04-26T01:20:56.294Z,9.30
2018-04-26T01:25:47.782Z,9.50
2018-04-26T01:30:39.274Z,9.50
2018-04-26T01:35:31.537Z,9.50
2018-04-26T01:40:23.769Z,9.70
2018-04-26T01:45:15.280Z,9.60
2018-04-26T01:50:06.753Z,9.70
2018-04-26T01:54:59.911Z,9.80
2018-04-26T01:59:52.164Z,9.70
2018-04-26T02:04:43.674Z,9.60
2018-04-26T02:09:35.275Z,9.60
2018-04-26T02:14:26.765Z,9.50
2018-04-26T02:19:19.047Z,9.30
2018-04-26T02:24:10.544Z,9.20
2018-04-26T02:29:03.517Z,9.00
2018-04-26T02:33:55.759Z,9.20
2018-04-26T02:38:48.793Z,9.30
2018-04-26T02:43:40.293Z,9.30
2018-04-26T02:48:31.802Z,9.50
2018-04-26T02:53:24.767Z,9.70
2018-04-26T02:58:16.283Z,9.60
2018-04-26T03:03:07.832Z,9.70
2018-04-26T03:07:59.349Z,9.60
2018-04-26T03:12:50.914Z,9.70
2018-04-26T03:17:43.171Z,10.00
2018-04-26T03:22:35.430Z,10.00
2018-04-26T03:27:26.912Z,9.90
2018-04-26T03:32:18.432Z,10.00
2018-04-26T03:37:09.916Z,10.20
2018-04-26T03:42:02.163Z,10.20
2018-04-26T03:46:54.424Z,10.20
2018-04-26T03:51:46.689Z,10.10
2018-04-26T03:56:38.190Z,10.10
2018-04-26T04:01:48.096Z,10.10
2018-04-26T04:06:39.652Z,10.00
2018-04-26T04:11:31.152Z,9.90
2018-04-26T04:16:23.362Z,9.70
2018-04-26T04:21:14.849Z,9.60
2018-04-26T04:26:06.613Z,9.80
2018-04-26T04:30:58.155Z,9.80
2018-04-26T04:35:49.657Z,9.90
2018-04-26T04:40:41.177Z,10.00
2018-04-26T04:45:33.437Z,9.90
2018-04-26T04:50:24.920Z,9.80
2018-04-26T04:55:16.446Z,9.70
2018-04-26T05:00:07.987Z,9.50
2018-04-26T05:04:59.486Z,9.50
2018-04-26T05:09:50.985Z,9.60
2018-04-26T05:14:43.205Z,9.90
2018-04-26T05:19:34.796Z,9.80
2018-04-26T05:24:26.248Z,9.80
2018-04-26T05:29:17.793Z,10.00
2018-04-26T05:34:09.313Z,10.30
2018-04-26T05:39:00.815Z,10.30
2018-04-26T05:43:53.120Z,11.80
2018-04-26T05:48:44.678Z,11.70
2018-04-26T05:53:36.191Z,12.40
2018-04-26T05:58:27.707Z,13.80
2018-04-26T06:03:19.226Z,15.50
2018-04-26T06:08:10.715Z,16.70
2018-04-26T06:13:02.213Z,15.70
2018-04-26T06:17:53.723Z,15.70
2018-04-26T06:22:45.233Z,14.20
2018-04-26T06:27:37.457Z,13.00
2018-04-26T06:32:28.974Z,12.90
2018-04-26T06:37:20.453Z,12.80
2018-04-26T06:42:12.696Z,13.30
2018-04-26T06:47:04.988Z,13.20
2018-04-26T06:51:56.498Z,13.20
2018-04-26T06:56:47.997Z,13.40
2018-04-26T07:01:39.506Z,13.30
2018-04-26T07:06:31.023Z,13.70
2018-04-26T07:11:22.498Z,16.80
2018-04-26T07:16:14.773Z,16.60
2018-04-26T07:21:06.273Z,16.50
2018-04-26T07:25:59.282Z,18.10
2018-04-26T07:30:50.779Z,18.10
2018-04-26T07:35:42.292Z,19.40
2018-04-26T07:40:33.777Z,19.80
2018-04-26T07:45:26.019Z,19.10
2018-04-26T07:50:18.280Z,18.70
2018-04-26T07:55:09.800Z,18.60
2018-04-26T08:00:02.132Z,17.50
2018-04-26T08:04:53.646Z,17.40
2018-04-26T08:09:45.151Z,17.30
2018-04-26T08:14:36.745Z,19.40
2018-04-26T08:19:29.043Z,19.60
2018-04-26T08:24:20.557Z,19.60
2018-04-26T08:29:12.137Z,19.40
2018-04-26T08:34:03.640Z,20.60
2018-04-26T08:38:55.159Z,20.80
2018-04-26T08:43:47.435Z,21.60
2018-04-26T08:48:38.981Z,21.50
2018-04-26T08:53:30.491Z,23.50
2018-04-26T08:58:21.983Z,23.20
2018-04-26T09:03:13.499Z,24.60
2018-04-26T09:08:05.068Z,23.80
2018-04-26T09:12:57.373Z,24.10
2018-04-26T09:17:48.896Z,24.00
2018-04-26T09:22:40.406Z,23.70
2018-04-26T09:27:31.897Z,22.80
2018-04-26T09:32:23.451Z,21.10
2018-04-26T09:37:15.670Z,18.50
2018-04-26T09:42:07.300Z,18.20
2018-04-26T09:46:59.390Z,18.10
2018-04-26T09:51:51.670Z,18.60
2018-04-26T09:56:43.165Z,18.50
2018-04-26T10:01:35.391Z,19.20
2018-04-26T10:06:30.903Z,19.20
2018-04-26T10:11:22.402Z,19.10
2018-04-26T10:16:13.910Z,18.80
2018-04-26T10:21:05.445Z,18.90
2018-04-26T10:25:56.958Z,19.00
2018-04-26T10:30:48.484Z,18.80
2018-04-26T10:35:39.978Z,18.60
2018-04-26T10:40:31.488Z,18.60
2018-04-26T10:45:23.743Z,18.10
2018-04-26T10:50:15.972Z,18.10
2018-04-26T10:55:07.443Z,18.00
2018-04-26T10:59:58.983Z,17.40
2018-04-26T11:04:50.484Z,17.50
2018-04-26T11:09:43.404Z,18.50
2018-04-26T11:14:34.917Z,18.40
2018-04-26T11:19:26.472Z,19.40
2018-04-26T11:24:18.062Z,19.70
2018-04-26T11:29:09.550Z,19.10
2018-04-26T11:34:01.057Z,19.00
2018-04-26T11:38:52.670Z,19.30
2018-04-26T11:43:44.909Z,19.00
2018-04-26T11:48:37.153Z,18.40
2018-04-26T11:53:28.793Z,18.40
2018-04-26T11:58:21.045Z,18.00
2018-04-26T12:03:13.285Z,18.40
2018-04-26T12:08:04.808Z,18.30
2018-04-26T12:12:56.286Z,19.00
2018-04-26T12:17:47.772Z,19.80
2018-04-26T12:22:39.257Z,19.90
2018-04-26T12:27:30.747Z,19.30
2018-04-26T12:32:22.248Z,18.10
2018-04-26T12:37:13.767Z,18.20
2018-04-26T12:42:05.363Z,18.90
2018-04-26T12:46:56.870Z,18.70
2018-04-26T12:51:48.375Z,18.00
2018-04-26T12:56:39.877Z,17.80
2018-04-26T13:01:32.109Z,17.90
2018-04-26T13:06:23.698Z,17.90
2018-04-26T13:11:15.240Z,18.10
2018-04-26T13:16:06.753Z,18.30
2018-04-26T13:20:58.233Z,18.80
2018-04-26T13:25:49.733Z,18.90
2018-04-26T13:30:41.247Z,18.10
2018-04-26T13:35:32.774Z,17.90
2018-04-26T13:40:25.035Z,18.10
2018-04-26T13:45:16.667Z,18.00
2018-04-26T13:50:08.182Z,17.90
2018-04-26T13:55:00.600Z,17.80
2018-04-26T13:59:52.089Z,17.70
2018-04-26T14:04:43.634Z,18.40
2018-04-26T14:09:35.115Z,19.20
2018-04-26T14:14:26.586Z,19.30
2018-04-26T14:19:18.103Z,19.00
2018-04-26T14:24:10.365Z,19.00
2018-04-26T14:29:02.666Z,19.50
2018-04-26T14:33:54.239Z,19.40
2018-04-26T14:38:46.473Z,19.70
2018-04-26T14:43:38.692Z,19.60
2018-04-26T14:48:30.941Z,20.20
2018-04-26T14:53:22.443Z,19.90
2018-04-26T14:58:13.943Z,19.80
2018-04-26T15:03:05.423Z,19.40
2018-04-26T15:07:56.945Z,18.60
2018-04-26T15:12:48.409Z,17.90
2018-04-26T15:17:39.912Z,17.40
2018-04-26T15:22:31.432Z,17.10
2018-04-26T15:27:23.668Z,17.20
2018-04-26T15:32:15.926Z,16.70
2018-04-26T15:37:07.823Z,16.60
2018-04-26T15:41:59.347Z,16.90
2018-04-26T15:46:50.861Z,16.80
2018-04-26T15:51:42.409Z,16.70
2018-04-26T15:56:53.697Z,16.70
2018-04-26T16:02:25.459Z,16.80
2018-04-26T16:07:55.062Z,16.40
2018-04-26T16:13:11.388Z,16.30
2018-04-26T16:18:28.481Z,16.10
2018-04-26T16:23:44.697Z,16.00
2018-04-26T16:34:49.639Z,15.30
2018-04-26T16:39:41.146Z,15.10
2018-04-26T16:44:32.615Z,15.00
2018-04-26T16:49:24.157Z,15.30
2018-04-26T16:54:15.638Z,15.30
2018-04-26T16:59:07.127Z,15.30
2018-04-26T17:03:58.674Z,15.00
2018-04-26T17:08:51.033Z,15.00
2018-04-26T17:13:42.543Z,15.10
2018-04-26T17:18:34.061Z,14.90
2018-04-26T17:23:26.290Z,14.90
2018-04-26T17:28:18.597Z,15.10
2018-04-26T17:33:10.102Z,15.00
2018-04-26T17:38:01.602Z,15.00
2018-04-26T17:42:53.840Z,15.00
2018-04-26T17:47:45.317Z,15.00
2018-04-26T17:52:36.820Z,14.90
2018-04-26T17:57:28.327Z,14.90
2018-04-26T18:02:19.847Z,14.80
2018-04-26T18:07:11.358Z,14.80
2018-04-26T18:12:02.881Z,14.70
2018-04-26T18:16:55.133Z,14.30
2018-04-26T18:21:46.599Z,14.20
2018-04-26T18:26:38.081Z,14.00
2018-04-26T18:31:30.317Z,13.60
2018-04-26T18:36:22.051Z,13.50
2018-04-26T18:41:13.540Z,13.50
2018-04-26T18:46:05.042Z,13.30
2018-04-26T18:50:57.279Z,12.70
2018-04-26T18:55:48.754Z,12.70
2018-04-26T19:00:40.223Z,12.60
2018-04-26T19:05:31.690Z,12.50
2018-04-26T19:10:23.971Z,12.20
2018-04-26T19:15:15.484Z,12.20
2018-04-26T19:20:08.663Z,12.10
2018-04-26T19:25:00.929Z,12.20
2018-04-26T19:29:52.403Z,12.10
2018-04-26T19:34:43.918Z,12.30
2018-04-26T19:39:35.432Z,12.10
2018-04-26T19:44:26.990Z,11.90
2018-04-26T19:49:18.470Z,11.60
2018-04-26T19:54:10.711Z,11.40
2018-04-26T19:59:02.945Z,11.30
2018-04-26T20:03:55.191Z,11.20
2018-04-26T20:08:46.740Z,11.10
2018-04-26T20:13:38.225Z,11.10
2018-04-26T20:18:29.807Z,11.00
2018-04-26T20:23:21.249Z,11.00
2018-04-26T20:28:13.541Z,10.80
2018-04-26T20:33:05.037Z,10.70
2018-04-26T20:37:57.553Z,10.60
2018-04-26T20:42:49.048Z,10.50
2018-04-26T20:47:41.317Z,10.30
2018-04-26T20:52:32.822Z,10.30
2018-04-26T20:57:25.068Z,10.10
2018-04-26T21:02:17.430Z,10.10
2018-04-26T21:07:09.727Z,10.00
2018-04-26T21:12:01.403Z,9.90
2018-04-26T21:16:53.809Z,9.90
2018-04-26T21:21:45.429Z,9.80
2018-04-26T21:26:36.989Z,9.70
2018-04-26T21:31:28.626Z,9.60
2018-04-26T21:36:20.263Z,9.60
2018-04-26T21:41:12.621Z,9.50
2018-04-26T21:46:05.189Z,9.40
2018-04-26T21:51:03.545Z,9.30
2018-04-26T21:56:01.209Z,9.30
2018-04-26T22:00:59.009Z,9.20
2018-04-26T22:05:50.666Z,9.10
2018-04-26T22:10:43.430Z,9.00
2018-04-26T22:15:35.065Z,9.00
2018-04-26T22:20:26.697Z,9.00
2018-04-26T22:25:19.362Z,8.90
2018-04-26T22:30:11.103Z,8.90
2018-04-26T22:35:03.656Z,8.80
2018-04-26T22:39:55.400Z,8.80
2018-04-26T22:44:47.030Z,8.70
2018-04-26T22:49:38.671Z,8.70
2018-04-26T22:54:30.286Z,8.60
2018-04-26T22:59:21.945Z,8.60
2018-04-26T23:04:13.583Z,8.50
2018-04-26T23:09:05.219Z,8.40
2018-04-26T23:13:56.858Z,8.40
2018-04-26T23:18:48.594Z,8.20
2018-04-26T23:23:40.145Z,8.20
2018-04-26T23:28:31.725Z,8.10
2018-04-26T23:33:23.298Z,8.00
2018-04-26T23:38:14.904Z,8.00
2018-04-26T23:43:07.267Z,8.00
2018-04-26T23:47:58.894Z,8.00
2018-04-26T23:52:51.356Z,7.90
2018-04-26T23:57:42.926Z,7.90
